Time;durP1;ratioP1;P1;durP2;ratioP2;P2;SDS_P1;SDS_P2;PMS_P1;PMS_P2;Temp;Humidity;BMP_temperature;BMP_pressure;BME280_temperature;BME280_humidity;BME280_pressure;Samples;Min_cycle;Max_cycle;Signal;HPM_P1;HPM_P2
2023/01/26 00:01:24;;;;;;;0.20;0.20;;;;;;;;;;5063650;28;20020;-73
2023/01/26 00:03:50;;;;;;;0.30;0.30;;;;;;;;;;5052808;28;20036;-73
2023/01/26 00:06:16;;;;;;;3.35;3.15;;;;;;;;;;5049780;28;20033;-73
2023/01/26 00:08:43;;;;;;;0.10;0.10;;;;;;;;;;5018451;28;20043;-74
2023/01/26 00:11:10;;;;;;;0.30;0.30;;;;;;;;;;5024273;28;20413;-73
2023/01/26 00:13:35;;;;;;;0.40;0.40;;;;;;;;;;5058190;28;20028;-73
2023/01/26 00:16:01;;;;;;;0.75;0.75;;;;;;;;;;5039642;28;20028;-73
2023/01/26 00:18:27;;;;;;;0.30;0.30;;;;;;;;;;5062260;28;20032;-73
2023/01/26 00:20:59;;;;;;;0.32;0.32;;;;;;;;;;5045602;28;20024;-73
2023/01/26 00:23:26;;;;;;;0.20;0.20;;;;;;;;;;5042456;28;20041;-73
2023/01/26 00:25:51;;;;;;;0.25;0.25;;;;;;;;;;5041397;28;20082;-73
2023/01/26 00:28:17;;;;;;;0.93;0.93;;;;;;;;;;5042642;28;20025;-73
2023/01/26 00:30:42;;;;;;;0.28;0.28;;;;;;;;;;5042955;28;20087;-73
2023/01/26 00:33:08;;;;;;;0.63;0.63;;;;;;;;;;5040715;28;20087;-73
2023/01/26 00:35:33;;;;;;;0.10;0.10;;;;;;;;;;5043041;28;20033;-73
2023/01/26 00:38:00;;;;;;;0.35;0.35;;;;;;;;;;5067745;28;20025;-73
2023/01/26 00:40:26;;;;;;;0.10;0.10;;;;;;;;;;5051309;28;20009;-73
2023/01/26 00:42:53;;;;;;;0.15;0.15;;;;;;;;;;5053201;28;20031;-74
2023/01/26 00:45:19;;;;;;;0.30;0.30;;;;;;;;;;5053234;28;20037;-73
2023/01/26 00:47:44;;;;;;;1.10;1.10;;;;;;;;;;5053273;28;20029;-73
2023/01/26 00:50:10;;;;;;;0.30;0.30;;;;;;;;;;5053231;28;20025;-74
2023/01/26 00:52:35;;;;;;;0.70;0.70;;;;;;;;;;5035593;28;20112;-73
2023/01/26 00:55:01;;;;;;;0.17;0.17;;;;;;;;;;5052501;28;20028;-73
2023/01/26 00:57:26;;;;;;;0.38;0.38;;;;;;;;;;5053100;28;20056;-73
2023/01/26 00:59:52;;;;;;;1.10;1.10;;;;;;;;;;5052607;28;20166;-73
2023/01/26 01:02:17;;;;;;;1.27;1.13;;;;;;;;;;5035304;28;20024;-73
2023/01/26 01:04:43;;;;;;;0.22;0.22;;;;;;;;;;5051743;28;20045;-72
2023/01/26 01:07:08;;;;;;;0.95;0.95;;;;;;;;;;5034987;28;20037;-73
2023/01/26 01:09:33;;;;;;;0.60;0.60;;;;;;;;;;5051249;28;20491;-72
2023/01/26 01:11:59;;;;;;;0.10;0.10;;;;;;;;;;5043448;28;20034;-72
2023/01/26 01:14:26;;;;;;;0.50;0.50;;;;;;;;;;5047805;28;20369;-73
2023/01/26 01:16:51;;;;;;;0.10;0.10;;;;;;;;;;5051736;28;20032;-73
2023/01/26 01:19:18;;;;;;;0.30;0.30;;;;;;;;;;5051745;28;20025;-74
2023/01/26 01:21:43;;;;;;;2.92;2.22;;;;;;;;;;5052866;28;20358;-73
2023/01/26 01:24:09;;;;;;;0.20;0.20;;;;;;;;;;5067955;28;20534;-73
2023/01/26 01:26:35;;;;;;;0.40;0.40;;;;;;;;;;5071972;28;20078;-73
2023/01/26 01:29:00;;;;;;;0.20;0.20;;;;;;;;;;5072003;28;20086;-73
2023/01/26 01:31:28;;;;;;;0.32;0.32;;;;;;;;;;5073025;28;20029;-73
2023/01/26 01:33:53;;;;;;;0.10;0.10;;;;;;;;;;5072904;28;20040;-73
2023/01/26 01:36:19;;;;;;;0.10;0.10;;;;;;;;;;5072841;28;20020;-73
2023/01/26 01:38:45;;;;;;;1.77;1.67;;;;;;;;;;5072848;28;20346;-72
2023/01/26 01:41:11;;;;;;;0.80;0.45;;;;;;;;;;5071625;28;20063;-72
2023/01/26 01:43:36;;;;;;;0.28;0.28;;;;;;;;;;5072996;28;20057;-71
2023/01/26 01:46:03;;;;;;;0.10;0.10;;;;;;;;;;5072866;28;20422;-72
2023/01/26 01:48:48;;;;;;;0.17;0.17;;;;;;;;;;5054716;28;20028;-73
2023/01/26 01:51:29;;;;;;;0.10;0.10;;;;;;;;;;5072477;28;20021;-73
2023/01/26 01:53:56;;;;;;;0.22;0.22;;;;;;;;;;5054942;28;20123;-72
2023/01/26 01:56:24;;;;;;;0.75;0.75;;;;;;;;;;5073143;28;20582;-72
2023/01/26 01:58:52;;;;;;;0.10;0.10;;;;;;;;;;5072637;28;20528;-73
2023/01/26 02:01:18;;;;;;;0.50;0.50;;;;;;;;;;5071302;28;20024;-73
2023/01/26 02:03:44;;;;;;;1.58;1.52;;;;;;;;;;5072348;28;20029;-73
2023/01/26 02:06:31;;;;;;;0.57;0.57;;;;;;;;;;5056676;28;20490;-73
2023/01/26 02:08:57;;;;;;;0.30;0.30;;;;;;;;;;5076333;28;20039;-73
2023/01/26 02:11:27;;;;;;;0.35;0.35;;;;;;;;;;5074873;28;20024;-73
2023/01/26 02:13:53;;;;;;;0.10;0.10;;;;;;;;;;5074960;28;20029;-74
2023/01/26 02:16:19;;;;;;;0.10;0.10;;;;;;;;;;5075938;28;20017;-72
2023/01/26 02:18:45;;;;;;;0.75;0.75;;;;;;;;;;5074884;28;20029;-72
2023/01/26 02:21:15;;;;;;;0.70;0.70;;;;;;;;;;5059685;28;20122;-72
2023/01/26 02:23:41;;;;;;;;;;;;;;;;;;5057970;28;20438;-73
2023/01/26 02:26:10;;;;;;;0.10;0.10;;;;;;;;;;5057769;28;19931;-72
2023/01/26 02:28:35;;;;;;;0.75;0.75;;;;;;;;;;5075679;28;20407;-72
2023/01/26 02:31:02;;;;;;;0.10;0.10;;;;;;;;;;5071274;28;20024;-72
2023/01/26 02:33:29;;;;;;;0.15;0.15;;;;;;;;;;5049717;28;20017;-72
2023/01/26 02:35:59;;;;;;;0.10;0.10;;;;;;;;;;5057668;28;20062;-72
2023/01/26 02:38:27;;;;;;;1.73;1.63;;;;;;;;;;5057379;28;20074;-73
2023/01/26 02:41:03;;;;;;;1.50;1.40;;;;;;;;;;5069813;28;20029;-71
2023/01/26 02:43:29;;;;;;;0.10;0.10;;;;;;;;;;5046066;28;20032;-71
2023/01/26 02:45:56;;;;;;;0.17;0.17;;;;;;;;;;5054328;28;20510;-72
2023/01/26 02:51:06;;;;;;;0.30;0.30;;;;;;;;;;5054223;28;20397;-72
2023/01/26 02:53:32;;;;;;;11.70;2.35;;;;;;;;;;5037407;28;20029;-72
2023/01/26 02:55:58;;;;;;;0.10;0.10;;;;;;;;;;5024767;28;20044;-70
2023/01/26 02:58:24;;;;;;;0.10;0.10;;;;;;;;;;5057443;28;20498;-72
2023/01/26 03:00:49;;;;;;;0.50;0.50;;;;;;;;;;5057642;28;20033;-71
2023/01/26 03:03:25;;;;;;;1.83;1.70;;;;;;;;;;5040952;28;20032;-71
2023/01/26 03:05:51;;;;;;;0.20;0.20;;;;;;;;;;5075337;28;20148;-73
2023/01/26 03:08:16;;;;;;;1.65;1.50;;;;;;;;;;5057065;28;20515;-73
2023/01/26 03:10:42;;;;;;;0.10;0.10;;;;;;;;;;5056496;28;20115;-72
2023/01/26 03:13:07;;;;;;;1.75;1.65;;;;;;;;;;5075132;28;20035;-73
2023/01/26 03:15:41;;;;;;;0.10;0.10;;;;;;;;;;5057086;28;20029;-74
2023/01/26 03:29:07;;;;;;;0.70;0.70;;;;;;;;;;5056503;28;20025;-73
2023/01/26 03:31:32;;;;;;;0.20;0.20;;;;;;;;;;5056570;28;20040;-72
2023/01/26 03:33:59;;;;;;;1.00;1.00;;;;;;;;;;5056765;28;20028;-72
2023/01/26 03:36:25;;;;;;;0.10;0.10;;;;;;;;;;5056870;28;20444;-73
2023/01/26 03:38:50;;;;;;;0.10;0.10;;;;;;;;;;5056668;28;20067;-73
2023/01/26 03:57:44;;;;;;;0.20;0.20;;;;;;;;;;5074397;28;20039;-73
2023/01/26 04:00:09;;;;;;;0.10;0.10;;;;;;;;;;5056154;28;20464;-73
2023/01/26 04:08:27;;;;;;;0.13;0.13;;;;;;;;;;5052156;28;20028;-74
2023/01/26 04:10:58;;;;;;;0.20;0.20;;;;;;;;;;5052195;28;20032;-73
2023/01/26 04:21:42;;;;;;;0.30;0.30;;;;;;;;;;5069640;28;20108;-74
2023/01/26 04:24:13;;;;;;;0.30;0.30;;;;;;;;;;5051761;28;20063;-73
2023/01/26 04:26:39;;;;;;;0.17;0.17;;;;;;;;;;5052340;28;20550;-71
2023/01/26 04:29:08;;;;;;;;;;;;;;;;;;5051960;28;20029;-73
2023/01/26 04:31:34;;;;;;;1.13;1.08;;;;;;;;;;5052026;28;20003;-73
2023/01/26 04:34:00;;;;;;;0.10;0.10;;;;;;;;;;5051445;28;20446;-73
2023/01/26 04:36:26;;;;;;;0.20;0.20;;;;;;;;;;5034941;28;20487;-73
2023/01/26 04:38:52;;;;;;;0.10;0.10;;;;;;;;;;5035040;28;20016;-73
2023/01/26 04:41:20;;;;;;;0.10;0.10;;;;;;;;;;5052040;28;20075;-72
2023/01/26 04:43:51;;;;;;;0.20;0.20;;;;;;;;;;5051176;28;20131;-73
2023/01/26 04:46:17;;;;;;;0.10;0.10;;;;;;;;;;5070083;28;20509;-73
2023/01/26 04:48:42;;;;;;;0.10;0.10;;;;;;;;;;5051299;28;20028;-73
2023/01/26 04:51:12;;;;;;;0.30;0.30;;;;;;;;;;5069194;28;20041;-73
2023/01/26 04:53:38;;;;;;;0.65;0.65;;;;;;;;;;5051152;28;20024;-72
2023/01/26 04:56:04;;;;;;;0.10;0.10;;;;;;;;;;5051122;28;20033;-73
2023/01/26 04:58:31;;;;;;;0.10;0.10;;;;;;;;;;5051571;28;20499;-73
2023/01/26 05:00:57;;;;;;;0.20;0.20;;;;;;;;;;5050913;28;20537;-72
2023/01/26 05:03:24;;;;;;;0.20;0.20;;;;;;;;;;5051298;28;20029;-72
2023/01/26 05:05:50;;;;;;;0.10;0.10;;;;;;;;;;5068675;28;20044;-72
2023/01/26 05:08:18;;;;;;;0.10;0.10;;;;;;;;;;5035146;28;20021;-72
2023/01/26 05:10:43;;;;;;;0.10;0.10;;;;;;;;;;5068662;28;20116;-72
2023/01/26 05:13:22;;;;;;;0.10;0.10;;;;;;;;;;5037003;28;20085;-72
2023/01/26 05:16:06;;;;;;;0.10;0.10;;;;;;;;;;5066919;28;20117;-73
2023/01/26 05:18:52;;;;;;;0.10;0.10;;;;;;;;;;5053433;28;20037;-73
2023/01/26 05:21:38;;;;;;;0.10;0.10;;;;;;;;;;5051352;28;20029;-72
2023/01/26 05:24:04;;;;;;;0.10;0.10;;;;;;;;;;5049480;28;20510;-73
2023/01/26 05:27:19;;;;;;;0.20;0.20;;;;;;;;;;5008319;28;20040;-73
2023/01/26 05:29:49;;;;;;;0.10;0.10;;;;;;;;;;5052751;28;20098;-73
2023/01/26 05:32:14;;;;;;;0.10;0.10;;;;;;;;;;5036344;28;20028;-73
2023/01/26 05:34:40;;;;;;;1.85;1.75;;;;;;;;;;5069366;28;20024;-72
2023/01/26 05:37:06;;;;;;;0.10;0.10;;;;;;;;;;5051175;28;20029;-72
2023/01/26 05:39:33;;;;;;;0.10;0.10;;;;;;;;;;5034789;28;20025;-72
2023/01/26 05:42:00;;;;;;;1.45;1.38;;;;;;;;;;5052262;28;20358;-72
2023/01/26 05:44:39;;;;;;;;;;;;;;;;;;5035269;28;20044;-71
2023/01/26 05:47:10;;;;;;;0.20;0.20;;;;;;;;;;5068886;28;19943;-72
2023/01/26 05:49:44;;;;;;;0.10;0.10;;;;;;;;;;5053887;28;20085;-72
2023/01/26 05:52:15;;;;;;;0.65;0.65;;;;;;;;;;5054978;28;20082;-72
2023/01/26 05:54:41;;;;;;;0.10;0.10;;;;;;;;;;5057016;28;20040;-72
2023/01/26 05:57:07;;;;;;;0.10;0.10;;;;;;;;;;5063025;28;20028;-72
2023/01/26 05:59:36;;;;;;;0.13;0.13;;;;;;;;;;5071414;28;20027;-72
2023/01/26 06:02:04;;;;;;;0.15;0.15;;;;;;;;;;5034961;28;20051;-72
2023/01/26 06:04:29;;;;;;;0.15;0.15;;;;;;;;;;5052694;28;20480;-72
2023/01/26 06:06:58;;;;;;;0.20;0.20;;;;;;;;;;5037546;28;20387;-72
2023/01/26 06:09:28;;;;;;;9.45;1.45;;;;;;;;;;5038358;28;20024;-72
2023/01/26 06:12:11;;;;;;;0.30;0.30;;;;;;;;;;5052835;28;20036;-71
2023/01/26 06:14:55;;;;;;;0.32;0.32;;;;;;;;;;5070279;28;20042;-72
2023/01/26 06:17:21;;;;;;;0.20;0.20;;;;;;;;;;5030229;28;20037;-73
2023/01/26 06:19:52;;;;;;;0.20;0.20;;;;;;;;;;5047386;28;20020;-73
2023/01/26 06:22:18;;;;;;;0.10;0.10;;;;;;;;;;5050884;28;20040;-72
2023/01/26 06:24:47;;;;;;;0.20;0.20;;;;;;;;;;5053349;28;20412;-72
2023/01/26 06:27:13;;;;;;;0.20;0.20;;;;;;;;;;5052165;28;20035;-72
2023/01/26 06:29:41;;;;;;;0.10;0.10;;;;;;;;;;5033215;28;20059;-73
2023/01/26 06:32:09;;;;;;;0.10;0.10;;;;;;;;;;5044011;28;20927;-73
2023/01/26 06:34:34;;;;;;;0.15;0.15;;;;;;;;;;5053309;28;20024;-73
2023/01/26 06:37:00;;;;;;;0.10;0.10;;;;;;;;;;5036387;28;20036;-72
2023/01/26 06:39:31;;;;;;;0.10;0.10;;;;;;;;;;5072115;28;20520;-73
2023/01/26 06:41:59;;;;;;;0.10;0.10;;;;;;;;;;5050935;28;20029;-71
2023/01/26 06:44:24;;;;;;;0.10;0.10;;;;;;;;;;5053106;28;20044;-72
2023/01/26 06:46:50;;;;;;;0.10;0.10;;;;;;;;;;5053317;28;20020;-72
2023/01/26 06:49:15;;;;;;;0.10;0.10;;;;;;;;;;5070411;28;20365;-72
2023/01/26 06:51:41;;;;;;;0.10;0.10;;;;;;;;;;5052134;28;20036;-73
2023/01/26 06:54:08;;;;;;;0.20;0.20;;;;;;;;;;5071131;28;20029;-72
2023/01/26 06:56:54;;;;;;;0.10;0.10;;;;;;;;;;5059766;28;20040;-74
2023/01/26 06:59:27;;;;;;;0.20;0.20;;;;;;;;;;5052709;28;20028;-73
2023/01/26 07:02:15;;;;;;;0.10;0.10;;;;;;;;;;5064082;28;20055;-74
2023/01/26 07:04:40;;;;;;;0.20;0.20;;;;;;;;;;5064378;28;20473;-74
2023/01/26 07:07:07;;;;;;;0.20;0.20;;;;;;;;;;5069981;28;20086;-74
2023/01/26 07:09:32;;;;;;;0.10;0.10;;;;;;;;;;5069142;28;20515;-74
2023/01/26 07:11:57;;;;;;;0.40;0.40;;;;;;;;;;5053675;28;20550;-74
2023/01/26 07:14:23;;;;;;;0.10;0.10;;;;;;;;;;5068964;28;20035;-73
2023/01/26 07:16:48;;;;;;;0.77;0.77;;;;;;;;;;5068950;28;20090;-73
2023/01/26 07:19:13;;;;;;;0.20;0.20;;;;;;;;;;5048860;28;20111;-72
2023/01/26 07:21:39;;;;;;;0.25;0.25;;;;;;;;;;5049808;28;20028;-73
2023/01/26 07:24:05;;;;;;;0.20;0.20;;;;;;;;;;5063322;28;20049;-72
2023/01/26 07:26:30;;;;;;;0.10;0.10;;;;;;;;;;5062742;28;20033;-73
2023/01/26 07:28:55;;;;;;;0.20;0.20;;;;;;;;;;5048445;28;20032;-74
2023/01/26 07:31:21;;;;;;;0.10;0.10;;;;;;;;;;5066242;28;20482;-74
2023/01/26 07:33:46;;;;;;;0.20;0.20;;;;;;;;;;5053520;28;20071;-74
2023/01/26 07:36:11;;;;;;;6.75;4.97;;;;;;;;;;5067734;28;20082;-74
2023/01/26 07:38:37;;;;;;;0.20;0.20;;;;;;;;;;5068666;28;20025;-72
2023/01/26 07:41:03;;;;;;;0.30;0.30;;;;;;;;;;5066597;28;20472;-72
2023/01/26 07:43:31;;;;;;;0.10;0.10;;;;;;;;;;5033840;28;20029;-72
2023/01/26 07:45:56;;;;;;;0.10;0.10;;;;;;;;;;5030757;28;20040;-72
2023/01/26 07:48:22;;;;;;;0.10;0.10;;;;;;;;;;5047999;28;20021;-72
2023/01/26 07:50:48;;;;;;;0.10;0.10;;;;;;;;;;5046983;28;20025;-72
2023/01/26 07:53:15;;;;;;;0.20;0.20;;;;;;;;;;5047391;28;20036;-72
2023/01/26 07:55:42;;;;;;;0.68;0.57;;;;;;;;;;5029835;28;20021;-73
2023/01/26 07:58:08;;;;;;;0.20;0.20;;;;;;;;;;5030049;28;20056;-72
2023/01/26 08:00:34;;;;;;;0.82;0.82;;;;;;;;;;5050924;28;20127;-72
2023/01/26 08:03:00;;;;;;;0.35;0.35;;;;;;;;;;5049727;28;20119;-75
2023/01/26 08:05:25;;;;;;;0.40;0.40;;;;;;;;;;5069341;28;20120;-72
2023/01/26 08:07:51;;;;;;;0.10;0.10;;;;;;;;;;5061965;28;20037;-72
2023/01/26 08:10:17;;;;;;;0.17;0.17;;;;;;;;;;5063682;28;20035;-72
2023/01/26 08:12:42;;;;;;;1.48;1.38;;;;;;;;;;5048457;28;20032;-72
2023/01/26 08:15:08;;;;;;;0.20;0.20;;;;;;;;;;5068242;28;20059;-72
2023/01/26 08:17:33;;;;;;;0.10;0.10;;;;;;;;;;5062621;28;20074;-72
2023/01/26 08:19:59;;;;;;;0.20;0.20;;;;;;;;;;5057230;28;20036;-72
2023/01/26 08:22:24;;;;;;;0.35;0.35;;;;;;;;;;5050240;28;20595;-72
2023/01/26 08:24:49;;;;;;;0.10;0.10;;;;;;;;;;5049593;28;20053;-72
2023/01/26 08:27:16;;;;;;;0.32;0.32;;;;;;;;;;5040837;28;20032;-72
2023/01/26 08:29:41;;;;;;;0.20;0.20;;;;;;;;;;5034607;28;20059;-71
2023/01/26 08:32:07;;;;;;;0.68;0.68;;;;;;;;;;5069291;28;20021;-71
2023/01/26 08:34:33;;;;;;;2.65;2.55;;;;;;;;;;5065097;28;20037;-70
2023/01/26 08:36:58;;;;;;;1.15;1.08;;;;;;;;;;5068976;28;20119;-74
2023/01/26 08:39:24;;;;;;;0.50;0.50;;;;;;;;;;5050465;28;20110;-73
2023/01/26 08:41:49;;;;;;;0.10;0.10;;;;;;;;;;5064131;28;20039;-73
2023/01/26 08:44:15;;;;;;;0.10;0.10;;;;;;;;;;5048697;28;20029;-75
2023/01/26 08:46:42;;;;;;;0.10;0.10;;;;;;;;;;5050516;28;20036;-76
2023/01/26 08:49:07;;;;;;;0.10;0.10;;;;;;;;;;5069199;28;20053;-75
2023/01/26 08:51:33;;;;;;;0.95;0.95;;;;;;;;;;5068379;28;20375;-74
2023/01/26 08:53:58;;;;;;;0.10;0.10;;;;;;;;;;5067105;28;20231;-73
2023/01/26 08:56:24;;;;;;;0.10;0.10;;;;;;;;;;5066181;28;20061;-73
2023/01/26 08:58:49;;;;;;;0.15;0.15;;;;;;;;;;5058790;28;20073;-75
2023/01/26 09:01:15;;;;;;;0.10;0.10;;;;;;;;;;5069145;28;20035;-72
2023/01/26 09:03:42;;;;;;;0.20;0.20;;;;;;;;;;5067958;28;20031;-72
2023/01/26 09:06:08;;;;;;;0.10;0.10;;;;;;;;;;5065952;28;20613;-72
2023/01/26 09:08:33;;;;;;;0.10;0.10;;;;;;;;;;5050673;28;20056;-73
2023/01/26 09:10:59;;;;;;;2.60;2.50;;;;;;;;;;5064577;28;20059;-73
2023/01/26 09:13:25;;;;;;;0.85;0.75;;;;;;;;;;5057535;28;20103;-72
2023/01/26 09:15:50;;;;;;;0.10;0.10;;;;;;;;;;5032318;28;20143;-75
2023/01/26 09:18:16;;;;;;;0.10;0.10;;;;;;;;;;5053029;28;20071;-74
2023/01/26 09:20:42;;;;;;;0.20;0.20;;;;;;;;;;5018015;28;20037;-73
2023/01/26 09:23:09;;;;;;;1.83;1.58;;;;;;;;;;5053068;28;20098;-75
2023/01/26 09:25:38;;;;;;;0.35;0.35;;;;;;;;;;5053637;28;20144;-75
2023/01/26 09:28:04;;;;;;;0.10;0.10;;;;;;;;;;5046405;28;20032;-76
2023/01/26 09:30:29;;;;;;;0.20;0.20;;;;;;;;;;5069179;28;20017;-77
2023/01/26 09:33:03;;;;;;;0.10;0.10;;;;;;;;;;5072190;28;20016;-73
2023/01/26 09:35:29;;;;;;;0.10;0.10;;;;;;;;;;5054298;28;20116;-74
2023/01/26 09:37:54;;;;;;;0.22;0.22;;;;;;;;;;5071797;28;20036;-74
2023/01/26 09:40:39;;;;;;;0.10;0.10;;;;;;;;;;5054343;28;20107;-74
2023/01/26 09:43:19;;;;;;;0.20;0.20;;;;;;;;;;5072362;28;20456;-73
2023/01/26 09:46:23;;;;;;;0.10;0.10;;;;;;;;;;5071911;28;20032;-72
2023/01/26 09:48:54;;;;;;;0.10;0.10;;;;;;;;;;4971068;28;20043;-73
2023/01/26 09:51:22;;;;;;;0.10;0.10;;;;;;;;;;4954820;28;20038;-74
2023/01/26 09:53:53;;;;;;;0.30;0.30;;;;;;;;;;5022880;28;20040;-74
2023/01/26 09:56:21;;;;;;;0.10;0.10;;;;;;;;;;5071737;28;20528;-74
2023/01/26 09:58:50;;;;;;;0.50;0.50;;;;;;;;;;5071720;28;20023;-73
2023/01/26 10:01:15;;;;;;;;;;;;;;;;;;5072475;28;20055;-73
2023/01/26 10:04:04;;;;;;;0.10;0.10;;;;;;;;;;5067515;28;19909;-73
2023/01/26 10:06:31;;;;;;;0.10;0.10;;;;;;;;;;5043284;28;20278;-72
2023/01/26 10:09:16;;;;;;;0.10;0.10;;;;;;;;;;5038440;28;20032;-74
2023/01/26 10:11:43;;;;;;;0.32;0.32;;;;;;;;;;5071281;28;20024;-73
2023/01/26 10:14:09;;;;;;;0.10;0.10;;;;;;;;;;5071638;28;20361;-72
2023/01/26 10:16:34;;;;;;;0.40;0.40;;;;;;;;;;5061297;28;20037;-73
2023/01/26 10:19:11;;;;;;;0.10;0.10;;;;;;;;;;5030182;28;20021;-73
2023/01/26 10:21:39;;;;;;;0.10;0.10;;;;;;;;;;5050781;28;20032;-73
2023/01/26 10:24:04;;;;;;;4.38;3.63;;;;;;;;;;5055616;28;20040;-74
2023/01/26 10:26:31;;;;;;;0.20;0.20;;;;;;;;;;5062639;28;20032;-74
2023/01/26 10:28:57;;;;;;;0.20;0.20;;;;;;;;;;5052210;28;20063;-74
2023/01/26 10:31:24;;;;;;;0.15;0.15;;;;;;;;;;5052914;28;20044;-74
2023/01/26 10:33:51;;;;;;;0.10;0.10;;;;;;;;;;5069623;28;20027;-73
2023/01/26 10:36:17;;;;;;;0.40;0.40;;;;;;;;;;5062627;28;20502;-74
2023/01/26 10:38:43;;;;;;;0.20;0.20;;;;;;;;;;5056757;28;20434;-73
2023/01/26 10:41:29;;;;;;;0.20;0.20;;;;;;;;;;5061168;28;20066;-75
2023/01/26 10:44:06;;;;;;;6.38;1.60;;;;;;;;;;5067421;28;20102;-73
2023/01/26 10:46:41;;;;;;;0.20;0.20;;;;;;;;;;5068523;28;20024;-73
2023/01/26 10:49:06;;;;;;;0.20;0.20;;;;;;;;;;5064553;28;20017;-73
2023/01/26 10:51:33;;;;;;;0.20;0.20;;;;;;;;;;5043326;28;20521;-74
2023/01/26 10:54:17;;;;;;;0.20;0.20;;;;;;;;;;5050423;28;20047;-73
2023/01/26 10:56:44;;;;;;;0.20;0.20;;;;;;;;;;5059528;28;20017;-74
2023/01/26 10:59:12;;;;;;;0.30;0.30;;;;;;;;;;5047027;28;20526;-73
2023/01/26 11:01:50;;;;;;;1.35;0.82;;;;;;;;;;5028894;28;20025;-73
2023/01/26 11:04:16;;;;;;;0.43;0.43;;;;;;;;;;5063399;28;20132;-75
2023/01/26 11:06:41;;;;;;;0.20;0.20;;;;;;;;;;5066368;28;20111;-75
2023/01/26 11:09:12;;;;;;;0.20;0.20;;;;;;;;;;5067957;28;20025;-74
2023/01/26 11:11:38;;;;;;;0.15;0.15;;;;;;;;;;5067560;28;20043;-72
2023/01/26 11:14:12;;;;;;;0.20;0.20;;;;;;;;;;5068138;28;20025;-72
2023/01/26 11:16:39;;;;;;;0.40;0.40;;;;;;;;;;5063620;28;20035;-73
2023/01/26 11:19:08;;;;;;;0.20;0.20;;;;;;;;;;5050420;28;20025;-72
2023/01/26 11:21:33;;;;;;;0.20;0.20;;;;;;;;;;5068564;28;20027;-72
2023/01/26 11:24:19;;;;;;;0.20;0.20;;;;;;;;;;5050077;28;20052;-73
2023/01/26 11:26:57;;;;;;;0.20;0.20;;;;;;;;;;5049219;28;20487;-72
2023/01/26 11:29:41;;;;;;;0.28;0.28;;;;;;;;;;5068202;28;20028;-69
2023/01/26 11:32:24;;;;;;;0.40;0.40;;;;;;;;;;5068733;28;20032;-68
2023/01/26 11:35:01;;;;;;;0.20;0.20;;;;;;;;;;5070869;28;20391;-68
2023/01/26 11:37:29;;;;;;;0.28;0.28;;;;;;;;;;5069896;28;20092;-70
2023/01/26 11:40:00;;;;;;;0.20;0.20;;;;;;;;;;5069528;28;20032;-68
2023/01/26 11:42:25;;;;;;;0.30;0.30;;;;;;;;;;5070854;28;20024;-68
2023/01/26 11:45:03;;;;;;;0.20;0.20;;;;;;;;;;5069661;28;20047;-68
2023/01/26 11:47:28;;;;;;;0.20;0.20;;;;;;;;;;5070140;28;20031;-68
2023/01/26 11:50:00;;;;;;;0.30;0.30;;;;;;;;;;5069710;28;20033;-69
2023/01/26 11:52:34;;;;;;;0.75;0.55;;;;;;;;;;5052216;28;20376;-68
2023/01/26 11:55:16;;;;;;;0.73;0.50;;;;;;;;;;5069070;28;20029;-68
2023/01/26 11:57:52;;;;;;;5.32;1.17;;;;;;;;;;5064028;28;20102;-68
2023/01/26 12:00:36;;;;;;;0.40;0.40;;;;;;;;;;5067761;28;20024;-68
2023/01/26 12:03:03;;;;;;;0.30;0.30;;;;;;;;;;5067857;28;20047;-68
2023/01/26 12:05:43;;;;;;;0.20;0.20;;;;;;;;;;5069663;28;20036;-69
2023/01/26 12:08:28;;;;;;;0.45;0.40;;;;;;;;;;5069243;28;20032;-68
2023/01/26 12:11:24;;;;;;;0.20;0.20;;;;;;;;;;5069365;28;20049;-69
2023/01/26 12:14:04;;;;;;;0.20;0.20;;;;;;;;;;5029015;28;20044;-70
2023/01/26 12:16:46;;;;;;;0.20;0.20;;;;;;;;;;5050062;28;20113;-66
2023/01/26 12:19:15;;;;;;;0.20;0.20;;;;;;;;;;5058911;28;20079;-70
2023/01/26 12:21:44;;;;;;;0.30;0.30;;;;;;;;;;5060027;28;20025;-70
2023/01/26 12:24:23;;;;;;;2.22;1.15;;;;;;;;;;5062729;28;20387;-74
2023/01/26 12:26:58;;;;;;;0.20;0.20;;;;;;;;;;5057696;28;20067;-72
2023/01/26 12:29:41;;;;;;;0.55;0.55;;;;;;;;;;5050130;28;20404;-71
2023/01/26 12:32:11;;;;;;;1.52;1.05;;;;;;;;;;5059448;28;20123;-71
2023/01/26 12:34:36;;;;;;;1.05;0.95;;;;;;;;;;5062595;28;20028;-70
2023/01/26 12:37:21;;;;;;;0.10;0.10;;;;;;;;;;5062585;28;20023;-70
2023/01/26 12:40:06;;;;;;;0.20;0.20;;;;;;;;;;5060634;28;20101;-71
2023/01/26 12:42:50;;;;;;;0.10;0.10;;;;;;;;;;5057745;28;20036;-71
2023/01/26 12:45:19;;;;;;;0.10;0.10;;;;;;;;;;5057814;28;20070;-71
2023/01/26 12:47:51;;;;;;;0.10;0.10;;;;;;;;;;5050594;28;20033;-70
2023/01/26 12:50:19;;;;;;;0.20;0.20;;;;;;;;;;5059554;28;20033;-71
2023/01/26 12:53:00;;;;;;;0.57;0.52;;;;;;;;;;5059505;28;20035;-71
2023/01/26 12:55:41;;;;;;;0.20;0.20;;;;;;;;;;5060658;28;20400;-70
2023/01/26 12:58:39;;;;;;;0.20;0.20;;;;;;;;;;5053022;28;20068;-70
2023/01/26 13:01:04;;;;;;;;;;;;;;;;;;5058725;28;20476;-69
2023/01/26 13:03:32;;;;;;;0.67;0.60;;;;;;;;;;5063173;28;20073;-71
2023/01/26 13:06:00;;;;;;;0.20;0.20;;;;;;;;;;5067836;28;20384;-71
2023/01/26 13:08:28;;;;;;;0.17;0.17;;;;;;;;;;5058050;28;20528;-72
2023/01/26 13:11:07;;;;;;;0.30;0.30;;;;;;;;;;5068733;28;20494;-69
2023/01/26 13:13:51;;;;;;;0.30;0.30;;;;;;;;;;5059024;28;20082;-70
2023/01/26 13:16:17;;;;;;;0.20;0.20;;;;;;;;;;5060108;28;20024;-69
2023/01/26 13:18:53;;;;;;;0.10;0.10;;;;;;;;;;5048896;28;20021;-69
2023/01/26 13:21:41;;;;;;;0.20;0.20;;;;;;;;;;5048597;28;20514;-70
2023/01/26 13:24:15;;;;;;;0.50;0.50;;;;;;;;;;5050487;28;20052;-73
2023/01/26 13:30:22;;;;;;;0.85;0.65;;;;;;;;;;5002465;28;20445;-70
2023/01/26 13:32:47;;;;;;;0.15;0.15;;;;;;;;;;5002488;28;20033;-71
2023/01/26 13:35:25;;;;;;;0.17;0.17;;;;;;;;;;5003689;28;20053;-70
2023/01/26 13:38:05;;;;;;;0.57;0.57;;;;;;;;;;4986769;28;20444;-70
2023/01/26 13:43:40;;;;;;;0.13;0.13;;;;;;;;;;5005846;28;20037;-69
2023/01/26 13:46:18;;;;;;;0.10;0.10;;;;;;;;;;5005611;28;20045;-69
2023/01/26 13:48:47;;;;;;;0.85;0.57;;;;;;;;;;5006394;28;20036;-69
2023/01/26 13:51:34;;;;;;;0.30;0.30;;;;;;;;;;5006448;28;20052;-70
2023/01/26 13:54:00;;;;;;;0.20;0.20;;;;;;;;;;5006092;28;20107;-71
2023/01/26 13:56:25;;;;;;;0.73;0.63;;;;;;;;;;4992347;28;20053;-70
2023/01/26 13:59:10;;;;;;;0.20;0.20;;;;;;;;;;4986090;28;20081;-70
2023/01/26 14:01:41;;;;;;;0.25;0.25;;;;;;;;;;5063575;28;20040;-68
2023/01/26 14:04:07;;;;;;;0.63;0.63;;;;;;;;;;5054201;28;20048;-73
2023/01/26 14:06:34;;;;;;;2.45;0.95;;;;;;;;;;5051917;28;20063;-71
2023/01/26 14:09:01;;;;;;;0.10;0.10;;;;;;;;;;5067512;28;20100;-72
2023/01/26 14:11:29;;;;;;;0.10;0.10;;;;;;;;;;5054330;28;20043;-72
2023/01/26 14:13:56;;;;;;;0.30;0.30;;;;;;;;;;5037846;28;20495;-73
2023/01/26 14:16:23;;;;;;;0.30;0.30;;;;;;;;;;5072241;28;20136;-67
2023/01/26 14:18:48;;;;;;;0.20;0.20;;;;;;;;;;5072274;28;20016;-68
2023/01/26 14:21:19;;;;;;;0.20;0.20;;;;;;;;;;5072715;28;20028;-67
2023/01/26 14:23:44;;;;;;;0.20;0.20;;;;;;;;;;5072066;28;20495;-72
2023/01/26 14:26:10;;;;;;;0.10;0.10;;;;;;;;;;5072269;28;20040;-68
2023/01/26 14:28:39;;;;;;;0.10;0.10;;;;;;;;;;5072376;28;20485;-68
2023/01/26 14:31:05;;;;;;;;;;;;;;;;;;5054392;28;20059;-68
2023/01/26 14:33:31;;;;;;;0.22;0.22;;;;;;;;;;5072045;28;19943;-70
2023/01/26 14:36:00;;;;;;;0.20;0.20;;;;;;;;;;5070025;28;20030;-68
2023/01/26 14:38:31;;;;;;;0.28;0.28;;;;;;;;;;5071704;28;20062;-68
2023/01/26 14:40:58;;;;;;;0.20;0.20;;;;;;;;;;5070658;28;20043;-71
2023/01/26 14:43:25;;;;;;;0.20;0.20;;;;;;;;;;5066278;28;20237;-68
2023/01/26 14:46:12;;;;;;;0.20;0.20;;;;;;;;;;5051708;28;20498;-69
2023/01/26 14:48:53;;;;;;;0.45;0.45;;;;;;;;;;5070559;28;20029;-68
2023/01/26 14:51:20;;;;;;;2.05;1.10;;;;;;;;;;5071731;28;20808;-65
2023/01/26 14:53:54;;;;;;;0.22;0.22;;;;;;;;;;5070682;28;20078;-75
2023/01/26 14:56:21;;;;;;;0.20;0.20;;;;;;;;;;5071732;28;20413;-78
2023/01/26 14:58:53;;;;;;;0.20;0.20;;;;;;;;;;5071661;28;20368;-75
2023/01/26 15:01:20;;;;;;;0.30;0.30;;;;;;;;;;5070436;28;20392;-74
2023/01/26 15:03:50;;;;;;;0.13;0.13;;;;;;;;;;5070299;28;20027;-75
2023/01/26 15:06:19;;;;;;;0.68;0.47;;;;;;;;;;5070184;28;20037;-79
2023/01/26 15:08:55;;;;;;;0.20;0.20;;;;;;;;;;5071249;28;20032;-74
2023/01/26 15:14:26;;;;;;;0.20;0.20;;;;;;;;;;5069614;28;20036;-77
2023/01/26 15:16:52;;;;;;;0.17;0.17;;;;;;;;;;5063076;28;20546;-69
2023/01/26 15:19:24;;;;;;;0.20;0.20;;;;;;;;;;5070106;28;20371;-72
2023/01/26 15:21:50;;;;;;;0.30;0.30;;;;;;;;;;5070586;28;20054;-70
2023/01/26 15:24:15;;;;;;;0.22;0.22;;;;;;;;;;5069454;28;20044;-69
2023/01/26 15:26:41;;;;;;;0.20;0.20;;;;;;;;;;5069181;28;20383;-71
2023/01/26 15:29:26;;;;;;;0.28;0.28;;;;;;;;;;5066887;28;20406;-69
2023/01/26 15:31:52;;;;;;;0.20;0.20;;;;;;;;;;5067635;28;20034;-69
2023/01/26 15:34:37;;;;;;;0.20;0.20;;;;;;;;;;5066515;28;20012;-69
2023/01/26 15:37:22;;;;;;;0.20;0.20;;;;;;;;;;5068503;28;20020;-69
2023/01/26 15:39:47;;;;;;;1.10;0.85;;;;;;;;;;5062356;28;20029;-68
2023/01/26 15:42:14;;;;;;;0.70;0.47;;;;;;;;;;5058623;28;20044;-69
2023/01/26 15:44:39;;;;;;;0.45;0.45;;;;;;;;;;5050651;28;20056;-69
2023/01/26 15:47:07;;;;;;;0.52;0.52;;;;;;;;;;5068223;28;20118;-69
2023/01/26 15:49:33;;;;;;;0.68;0.68;;;;;;;;;;5049508;28;20028;-69
2023/01/26 15:51:58;;;;;;;0.20;0.20;;;;;;;;;;5068083;28;20111;-68
2023/01/26 15:54:23;;;;;;;0.50;0.50;;;;;;;;;;5068205;28;20025;-68